Terminal Aerodrome Forecast
Issued by NWS

Home | Current Version | Previous Version | Text Only | Print | Product List | Glossary On
Versions: 1 2 3 4 5 6 7 8 9 10 11 12 13 14 15 16 17 18
000
FTUS44 KLIX 251505 AAA
TAFMCB
TAF AMD
KMCB 251505Z 2515/2612 VRB03KT P6SM BKN008 OVC015
     FM251700 18008KT P6SM VCSH FEW015 BKN080
     FM251900 15008KT P6SM VCTS OVC030CB
     FM260000 15010KT P6SM BKN080
     FM260300 15009KT P6SM BKN025=

USA.gov is the U.S. government's official web portal to all federal, state and local government web resources and services.